Brookview, New York
Current Conditions -  °F | °C
As of 12:51 AM on Thursday 23 Oct 2014 (Local Time) from KALB Reporting Station
Light Rain Light Rain  
Wind Chill: 52°   Ceiling: 2700
Heat Index: 52°   Visibility: 10mi
Dew Point: 42°   Wind: 14mph
Humidity: 69%   Direction: 20°NNE
Pressure: 29.92"   Gusts: 23mph
Location:  42.5405°N, 73.7021°W
Report Text: KALB 230451Z 02012G20KT 10SM -RA OVC027 11/06 A2992 RMK AO2 RAB25 SLP133 P0000 T01110056 401220100
Loading
Personal Weather Stations






























Interactive Weather Map
Tropical Storm Tracking
New forecast layout! Learn more

10-Day Weather Forecast

Advertisements
Track Severe Weather on mobile